createdAt,value
2022-11-14T00:00:23.505Z,6.15
2022-11-14T00:02:49.981Z,7.03
2022-11-14T00:05:16.559Z,7.00
2022-11-14T00:07:42.917Z,6.80
2022-11-14T00:10:09.467Z,6.78
2022-11-14T00:12:35.843Z,7.22
2022-11-14T00:15:02.180Z,8.65
2022-11-14T00:17:28.552Z,7.45
2022-11-14T00:19:54.919Z,8.25
2022-11-14T00:22:21.287Z,6.90
2022-11-14T00:24:48.792Z,6.05
2022-11-14T00:27:15.389Z,9.25
2022-11-14T00:29:41.807Z,8.13
2022-11-14T00:32:08.136Z,7.75
2022-11-14T00:34:34.568Z,7.03
2022-11-14T00:37:01.123Z,8.25
2022-11-14T00:39:27.525Z,7.40
2022-11-14T00:41:53.961Z,6.38
2022-11-14T00:44:20.471Z,6.53
2022-11-14T00:46:46.851Z,7.72
2022-11-14T00:49:13.193Z,6.80
2022-11-14T00:51:39.537Z,8.77
2022-11-14T00:54:07.401Z,6.65
2022-11-14T00:56:34.128Z,10.82
2022-11-14T00:59:00.712Z,6.05
2022-11-14T01:01:27.163Z,7.18
2022-11-14T01:03:53.536Z,5.47
2022-11-14T01:06:20.264Z,6.55
2022-11-14T01:08:46.703Z,6.28
2022-11-14T01:11:17.135Z,6.03
2022-11-14T01:13:45.471Z,6.25
2022-11-14T01:16:12.108Z,6.35
2022-11-14T01:18:41.941Z,6.35
2022-11-14T01:21:11.035Z,6.28
2022-11-14T01:23:37.537Z,5.65
2022-11-14T01:26:13.316Z,8.32
2022-11-14T01:28:40.358Z,5.43
2022-11-14T01:31:17.001Z,6.88
2022-11-14T01:33:43.634Z,7.32
2022-11-14T01:36:10.786Z,7.70
2022-11-14T01:38:38.001Z,7.13
2022-11-14T01:41:04.747Z,8.40
2022-11-14T01:43:33.284Z,7.05
2022-11-14T01:46:05.029Z,7.65
2022-11-14T01:48:41.947Z,6.88
2022-11-14T01:51:59.436Z,7.63
2022-11-14T01:54:33.000Z,7.63
2022-11-14T01:57:02.432Z,7.18
2022-11-14T01:59:35.013Z,8.48
2022-11-14T02:02:05.033Z,10.48
2022-11-14T02:04:34.469Z,8.65
2022-11-14T02:07:02.640Z,10.52
2022-11-14T02:09:33.852Z,10.15
2022-11-14T02:12:01.118Z,9.00
2022-11-14T02:14:30.154Z,8.93
2022-11-14T02:17:22.655Z,8.63
2022-11-14T02:19:49.360Z,7.90
2022-11-14T02:22:16.032Z,7.55
2022-11-14T02:24:43.530Z,9.10
2022-11-14T02:27:10.366Z,7.72
2022-11-14T02:29:36.814Z,8.68
2022-11-14T02:32:08.076Z,10.35
2022-11-14T02:34:36.816Z,7.60
2022-11-14T02:37:03.175Z,9.43
2022-11-14T02:39:29.491Z,8.40
2022-11-14T02:41:55.852Z,10.23
2022-11-14T02:44:22.398Z,9.07
2022-11-14T02:46:48.745Z,10.80
2022-11-14T02:49:15.101Z,8.50
2022-11-14T02:51:41.437Z,10.20
2022-11-14T02:54:07.965Z,10.27
2022-11-14T02:56:34.360Z,9.25
2022-11-14T02:59:00.681Z,9.48
2022-11-14T03:01:27.175Z,7.93
2022-11-14T03:03:53.736Z,11.00
2022-11-14T03:06:20.065Z,8.95
2022-11-14T03:08:46.402Z,8.70
2022-11-14T03:11:12.767Z,8.23
2022-11-14T03:13:39.072Z,9.85
2022-11-14T03:16:10.470Z,7.50
2022-11-14T03:18:36.993Z,9.77
2022-11-14T03:21:07.892Z,12.38
2022-11-14T03:23:34.266Z,8.32
2022-11-14T03:26:02.116Z,8.05
2022-11-14T03:28:29.142Z,7.22
2022-11-14T03:30:55.731Z,9.18
2022-11-14T03:33:22.625Z,8.10
2022-11-14T03:35:50.729Z,8.23
2022-11-14T03:38:18.355Z,7.97
2022-11-14T03:40:45.039Z,8.30
2022-11-14T03:43:11.599Z,8.65
2022-11-14T03:45:38.037Z,7.85
2022-11-14T03:48:05.880Z,10.35
2022-11-14T03:50:32.395Z,7.43
2022-11-14T03:52:58.710Z,7.65
2022-11-14T03:55:25.234Z,8.43
2022-11-14T03:57:51.592Z,7.40
2022-11-14T04:00:18.441Z,8.02
2022-11-14T04:02:44.765Z,7.28
2022-11-14T04:05:11.105Z,7.20
2022-11-14T04:07:37.460Z,10.05
2022-11-14T04:10:04.158Z,9.23
2022-11-14T04:12:30.456Z,7.40
2022-11-14T04:14:56.874Z,7.53
2022-11-14T04:17:23.246Z,8.00
2022-11-14T04:19:50.331Z,7.68
2022-11-14T04:22:16.666Z,11.02
2022-11-14T04:24:42.995Z,6.82
2022-11-14T04:27:09.328Z,9.85
2022-11-14T04:29:35.674Z,7.75
2022-11-14T04:32:02.010Z,8.57
2022-11-14T04:34:28.361Z,8.55
2022-11-14T04:36:54.702Z,10.43
2022-11-14T04:39:21.008Z,9.25
2022-11-14T04:41:47.322Z,11.05
2022-11-14T04:44:13.637Z,8.93
2022-11-14T04:46:39.951Z,8.95
2022-11-14T04:49:06.251Z,9.43
2022-11-14T04:51:32.596Z,8.90
2022-11-14T04:53:58.913Z,9.85
2022-11-14T04:56:25.491Z,10.38
2022-11-14T04:58:51.814Z,10.00
2022-11-14T05:01:18.251Z,11.13
2022-11-14T05:03:44.606Z,10.25
2022-11-14T05:06:11.231Z,10.10
2022-11-14T05:08:37.558Z,10.48
2022-11-14T05:11:04.082Z,9.68
2022-11-14T05:13:30.914Z,11.18
2022-11-14T05:16:01.198Z,10.27
2022-11-14T05:18:27.838Z,11.63
2022-11-14T05:20:58.092Z,10.98
2022-11-14T05:23:24.443Z,12.20
2022-11-14T05:26:00.490Z,12.85
2022-11-14T05:28:26.999Z,15.98
2022-11-14T05:30:53.463Z,14.10
2022-11-14T05:33:19.815Z,12.90
2022-11-14T05:35:46.380Z,12.25
2022-11-14T05:38:12.685Z,14.20
2022-11-14T05:40:38.998Z,10.73
2022-11-14T05:43:05.331Z,13.55
2022-11-14T05:45:31.636Z,12.18
2022-11-14T05:47:57.974Z,14.85
2022-11-14T05:50:24.294Z,14.32
2022-11-14T05:52:50.625Z,16.60
2022-11-14T05:55:21.837Z,18.08
2022-11-14T05:57:50.861Z,16.55
2022-11-14T06:00:17.432Z,15.43
2022-11-14T06:02:46.025Z,16.50
2022-11-14T06:05:12.350Z,17.30
2022-11-14T06:07:39.056Z,17.05
2022-11-14T06:10:05.782Z,17.73
2022-11-14T06:12:32.484Z,16.83
2022-11-14T06:14:58.809Z,17.17
2022-11-14T06:17:25.124Z,16.30
2022-11-14T06:19:51.453Z,16.95
2022-11-14T06:22:17.804Z,17.30
2022-11-14T06:24:44.157Z,18.85
2022-11-14T06:27:10.622Z,17.48
2022-11-14T06:29:36.994Z,19.85
2022-11-14T06:32:03.569Z,17.67
2022-11-14T06:34:29.900Z,18.83
2022-11-14T06:36:56.275Z,17.02
2022-11-14T06:39:22.675Z,17.33
2022-11-14T06:41:48.988Z,16.15
2022-11-14T06:44:15.377Z,20.20
2022-11-14T06:46:41.716Z,17.65
2022-11-14T06:49:08.038Z,20.05
2022-11-14T06:51:34.410Z,21.15
2022-11-14T06:54:00.785Z,24.52
2022-11-14T06:56:27.148Z,21.25
2022-11-14T06:58:53.477Z,18.45
2022-11-14T07:01:22.271Z,19.88
2022-11-14T07:03:49.044Z,18.00
2022-11-14T07:06:18.682Z,18.27
2022-11-14T07:08:45.077Z,17.92
2022-11-14T07:11:22.767Z,18.98
2022-11-14T07:14:07.231Z,16.05
2022-11-14T07:16:35.219Z,18.23
2022-11-14T07:19:04.069Z,20.15
2022-11-14T07:21:31.384Z,21.55
2022-11-14T07:23:57.935Z,20.65
2022-11-14T07:26:24.292Z,21.58
2022-11-14T07:28:53.023Z,25.17
2022-11-14T07:31:21.318Z,24.33
2022-11-14T07:33:47.782Z,22.52
2022-11-14T07:36:15.754Z,24.77
2022-11-14T07:38:42.234Z,27.48
2022-11-14T07:41:13.390Z,25.02
2022-11-14T07:43:39.885Z,28.88
2022-11-14T07:46:14.364Z,26.63
2022-11-14T07:48:40.914Z,27.90
2022-11-14T07:51:10.271Z,24.52
2022-11-14T07:53:36.673Z,28.08
2022-11-14T07:56:05.693Z,27.98
2022-11-14T07:58:32.316Z,26.58
2022-11-14T08:01:02.485Z,29.20
2022-11-14T08:03:28.999Z,28.95
2022-11-14T08:06:06.784Z,30.02
2022-11-14T08:08:33.494Z,29.63
2022-11-14T08:11:00.880Z,32.67
2022-11-14T08:13:33.028Z,32.95
2022-11-14T08:16:11.957Z,33.08
2022-11-14T08:18:39.476Z,30.85
2022-11-14T08:21:06.170Z,33.17
2022-11-14T08:23:32.509Z,32.53
2022-11-14T08:25:59.893Z,32.92
2022-11-14T08:28:26.353Z,35.30
2022-11-14T08:30:52.776Z,36.92
2022-11-14T08:33:19.103Z,36.28
2022-11-14T08:35:45.433Z,32.58
2022-11-14T08:38:11.787Z,32.40
2022-11-14T08:40:39.772Z,32.33
2022-11-14T08:43:06.156Z,39.28
2022-11-14T08:45:32.498Z,33.88
2022-11-14T08:47:59.000Z,35.30
2022-11-14T08:50:25.438Z,36.78
2022-11-14T08:52:52.235Z,33.78
2022-11-14T08:55:19.514Z,33.13
2022-11-14T08:57:49.443Z,31.55
2022-11-14T09:00:16.953Z,34.55
2022-11-14T09:02:43.338Z,30.60
2022-11-14T09:05:09.701Z,28.60
2022-11-14T09:07:36.480Z,28.33
2022-11-14T09:10:03.471Z,27.50
2022-11-14T09:12:29.851Z,28.90
2022-11-14T09:14:56.276Z,29.05
2022-11-14T09:17:22.596Z,28.73
2022-11-14T09:19:48.978Z,27.52
2022-11-14T09:22:15.351Z,30.60
2022-11-14T09:24:41.765Z,28.50
2022-11-14T09:27:15.247Z,27.63
2022-11-14T09:29:41.707Z,24.63
2022-11-14T09:32:08.014Z,26.80
2022-11-14T09:34:34.424Z,28.60
2022-11-14T09:37:00.928Z,27.15
2022-11-14T09:39:27.262Z,27.60
2022-11-14T09:42:17.300Z,27.45
2022-11-14T09:44:59.872Z,28.83
2022-11-14T09:47:30.335Z,25.85
2022-11-14T09:50:05.646Z,27.77
2022-11-14T09:52:37.623Z,25.42
2022-11-14T09:55:13.357Z,25.52
2022-11-14T09:57:44.076Z,24.65
2022-11-14T10:00:19.284Z,24.55
2022-11-14T10:03:14.007Z,27.25
2022-11-14T10:09:02.592Z,22.90
2022-11-14T10:11:41.408Z,28.65
2022-11-14T10:14:19.857Z,24.02
2022-11-14T10:17:24.353Z,23.15
2022-11-14T10:20:07.384Z,20.48
2022-11-14T10:23:01.132Z,21.95
2022-11-14T10:25:48.475Z,23.95
2022-11-14T10:28:42.120Z,25.02
2022-11-14T10:31:22.980Z,21.50
2022-11-14T10:34:09.481Z,23.55
2022-11-14T10:36:50.826Z,20.73
2022-11-14T10:39:29.594Z,29.08
2022-11-14T10:42:00.864Z,22.08
2022-11-14T10:44:39.421Z,24.85
2022-11-14T10:47:12.565Z,21.92
2022-11-14T10:49:38.957Z,27.85
2022-11-14T10:52:11.121Z,21.30
2022-11-14T10:54:46.294Z,19.23
2022-11-14T10:57:20.266Z,19.38
2022-11-14T10:59:47.305Z,20.52
2022-11-14T11:02:14.406Z,20.27
2022-11-14T11:04:42.308Z,17.40
2022-11-14T11:07:08.642Z,16.83
2022-11-14T11:09:55.578Z,18.60
2022-11-14T11:12:41.796Z,19.58
2022-11-14T11:15:20.135Z,19.88
2022-11-14T11:18:02.747Z,16.83
2022-11-14T11:20:38.052Z,19.05
2022-11-14T11:23:25.487Z,16.88
2022-11-14T11:26:09.020Z,16.65
2022-11-14T11:28:36.377Z,21.10
2022-11-14T11:31:10.875Z,17.98
2022-11-14T11:33:39.258Z,18.02
2022-11-14T11:36:10.593Z,17.98
2022-11-14T11:38:36.922Z,17.98
2022-11-14T11:41:15.611Z,18.92
2022-11-14T11:43:58.636Z,17.55
2022-11-14T11:46:41.027Z,16.38
2022-11-14T11:49:42.988Z,17.65
2022-11-14T11:52:18.280Z,17.10
2022-11-14T11:55:08.898Z,16.65
2022-11-14T11:57:47.040Z,18.17
2022-11-14T12:00:17.995Z,16.88
2022-11-14T12:02:50.507Z,18.05
2022-11-14T12:05:18.939Z,16.25
2022-11-14T12:07:49.924Z,15.95
2022-11-14T12:10:24.084Z,15.70
2022-11-14T12:16:22.181Z,18.63
2022-11-14T12:19:14.225Z,15.45
2022-11-14T12:21:58.576Z,16.35
2022-11-14T12:24:53.025Z,17.95
2022-11-14T12:27:29.868Z,16.00
2022-11-14T12:30:09.614Z,17.85
2022-11-14T12:32:45.092Z,14.55
2022-11-14T12:35:19.602Z,14.05
2022-11-14T12:37:52.702Z,16.38
2022-11-14T12:40:33.109Z,13.98
2022-11-14T12:43:00.798Z,14.65
2022-11-14T12:45:35.835Z,14.18
2022-11-14T12:48:25.342Z,14.65
2022-11-14T12:50:55.782Z,16.67
2022-11-14T12:53:37.430Z,14.68
2022-11-14T12:56:22.474Z,15.80
2022-11-14T12:59:23.349Z,12.98
2022-11-14T13:01:52.494Z,14.40
2022-11-14T13:04:57.961Z,15.65
2022-11-14T13:07:50.956Z,13.75
2022-11-14T13:10:30.625Z,14.80
2022-11-14T13:13:42.135Z,13.80
2022-11-14T13:16:42.731Z,13.68
2022-11-14T13:19:36.322Z,14.07
2022-11-14T13:22:20.312Z,14.98
2022-11-14T13:25:00.621Z,15.13
2022-11-14T13:27:52.098Z,14.60
2022-11-14T13:30:14.024Z,14.05
2022-11-14T13:32:43.016Z,13.65
2022-11-14T13:35:16.248Z,12.75
2022-11-14T13:37:54.632Z,15.20
2022-11-14T13:40:28.764Z,13.25
2022-11-14T13:43:17.405Z,12.23
2022-11-14T13:46:02.414Z,14.15
2022-11-14T13:48:35.902Z,11.40
2022-11-14T13:51:21.892Z,13.10
2022-11-14T13:53:52.436Z,11.38
2022-11-14T13:56:37.335Z,14.07
2022-11-14T13:59:17.852Z,13.07
2022-11-14T14:02:12.166Z,11.63
2022-11-14T14:05:10.476Z,14.57
2022-11-14T14:08:14.962Z,11.40
2022-11-14T14:10:47.601Z,15.48
2022-11-14T14:13:32.873Z,11.82
2022-11-14T14:16:06.115Z,15.38
2022-11-14T14:19:10.052Z,10.75
2022-11-14T14:21:49.462Z,12.77
2022-11-14T14:24:50.633Z,9.10
2022-11-14T14:27:16.904Z,15.65
2022-11-14T14:30:01.403Z,9.95
2022-11-14T14:34:56.915Z,10.85
2022-11-14T14:37:27.637Z,11.27
2022-11-14T14:40:05.384Z,10.27
2022-11-14T14:42:39.439Z,11.05
2022-11-14T14:45:14.306Z,10.93
2022-11-14T14:47:42.762Z,9.32
2022-11-14T14:50:24.084Z,10.00
2022-11-14T14:53:03.804Z,9.13
2022-11-14T14:55:34.805Z,7.30
2022-11-14T14:58:25.918Z,8.88
2022-11-14T15:01:06.938Z,8.70
2022-11-14T15:03:37.739Z,11.27
2022-11-14T15:06:07.501Z,6.72
2022-11-14T15:08:38.507Z,10.80
2022-11-14T15:11:06.063Z,7.15
2022-11-14T15:13:33.926Z,7.22
2022-11-14T15:16:01.715Z,6.47
2022-11-14T15:18:33.098Z,11.05
2022-11-14T15:21:26.656Z,68.20
2022-11-14T15:24:01.144Z,87.85
2022-11-14T15:26:29.137Z,42.50
2022-11-14T15:29:11.377Z,37.97
2022-11-14T15:31:37.984Z,36.97
2022-11-14T15:34:23.773Z,18.95
2022-11-14T15:37:16.135Z,10.35
2022-11-14T15:39:43.261Z,9.57
2022-11-14T15:42:14.024Z,11.23
2022-11-14T15:44:42.199Z,9.00
2022-11-14T15:47:26.177Z,10.60
2022-11-14T15:50:02.719Z,7.13
2022-11-14T15:52:35.434Z,6.50
2022-11-14T15:55:03.690Z,8.18
2022-11-14T15:57:31.764Z,7.75
2022-11-14T15:59:58.241Z,6.40
2022-11-14T16:02:29.800Z,6.25
2022-11-14T16:04:57.854Z,10.25
2022-11-14T16:07:24.560Z,8.75
2022-11-14T16:09:51.185Z,7.32
2022-11-14T16:12:17.527Z,5.65
2022-11-14T16:14:44.835Z,6.63
2022-11-14T16:17:14.130Z,5.97
2022-11-14T16:19:40.639Z,6.53
2022-11-14T16:22:11.304Z,7.00
2022-11-14T16:24:37.613Z,6.80
2022-11-14T16:27:04.022Z,7.18
2022-11-14T16:29:30.361Z,9.35
2022-11-14T16:31:56.672Z,10.98
2022-11-14T16:34:25.469Z,10.50
2022-11-14T16:36:58.189Z,15.52
2022-11-14T16:39:24.686Z,11.25
2022-11-14T16:41:51.033Z,11.52
2022-11-14T16:44:17.515Z,11.30
2022-11-14T16:46:45.157Z,14.85
2022-11-14T16:49:15.921Z,12.23
2022-11-14T16:51:48.167Z,11.63
2022-11-14T16:54:15.348Z,9.30
2022-11-14T16:56:41.694Z,13.60
2022-11-14T16:59:09.669Z,11.10
2022-11-14T17:01:36.220Z,9.13
2022-11-14T17:04:02.734Z,10.43
2022-11-14T17:06:29.688Z,10.48
2022-11-14T17:08:57.509Z,10.13
2022-11-14T17:11:24.724Z,10.93
2022-11-14T17:13:51.230Z,9.55
2022-11-14T17:16:17.958Z,11.25
2022-11-14T17:18:44.338Z,10.70
2022-11-14T17:21:11.840Z,10.93
2022-11-14T17:23:38.142Z,8.82
2022-11-14T17:26:11.709Z,12.30
2022-11-14T17:28:38.917Z,10.43
2022-11-14T17:31:08.431Z,8.68
2022-11-14T17:33:35.157Z,11.57
2022-11-14T17:36:06.355Z,10.00
2022-11-14T17:38:36.805Z,10.57
2022-11-14T17:41:06.692Z,9.95
2022-11-14T17:43:39.568Z,8.57
2022-11-14T17:46:11.160Z,11.30
2022-11-14T17:48:41.852Z,15.77
2022-11-14T17:51:10.991Z,14.95
2022-11-14T17:53:38.161Z,11.68
2022-11-14T17:56:04.579Z,11.40
2022-11-14T17:58:31.911Z,10.20
2022-11-14T18:01:01.410Z,10.40
2022-11-14T18:03:27.896Z,11.75
2022-11-14T18:06:10.389Z,10.77
2022-11-14T18:08:37.132Z,12.02
2022-11-14T18:11:04.930Z,9.10
2022-11-14T18:13:31.651Z,10.07
2022-11-14T18:16:03.729Z,10.80
2022-11-14T18:18:31.953Z,16.30
2022-11-14T18:20:59.231Z,16.75
2022-11-14T18:23:25.568Z,14.18
2022-11-14T18:25:52.081Z,11.10
2022-11-14T18:28:18.445Z,12.88
2022-11-14T18:30:55.439Z,11.25
2022-11-14T18:33:23.010Z,12.13
2022-11-14T18:35:59.111Z,11.00
2022-11-14T18:38:25.461Z,18.17
2022-11-14T18:40:56.949Z,15.75
2022-11-14T18:43:23.837Z,11.77
2022-11-14T18:45:50.817Z,14.55
2022-11-14T18:48:17.216Z,13.77
2022-11-14T18:50:43.745Z,12.15
2022-11-14T18:53:10.174Z,17.98
2022-11-14T18:55:41.812Z,13.98
2022-11-14T18:58:08.177Z,14.68
2022-11-14T19:00:35.414Z,13.55
2022-11-14T19:03:05.976Z,14.82
2022-11-14T19:05:35.353Z,13.52
2022-11-14T19:08:05.316Z,15.15
2022-11-14T19:10:31.654Z,13.38
2022-11-14T19:12:57.996Z,17.30
2022-11-14T19:15:24.413Z,19.00
2022-11-14T19:17:51.072Z,14.30
2022-11-14T19:20:17.409Z,14.80
2022-11-14T19:22:45.101Z,16.45
2022-11-14T19:25:11.423Z,13.80
2022-11-14T19:27:37.835Z,14.75
2022-11-14T19:30:04.444Z,13.73
2022-11-14T19:32:31.431Z,13.82
2022-11-14T19:34:57.785Z,14.45
2022-11-14T19:37:24.117Z,14.43
2022-11-14T19:39:55.106Z,14.18
2022-11-14T19:42:21.728Z,15.75
2022-11-14T19:44:49.766Z,14.95
2022-11-14T19:47:16.104Z,13.30
2022-11-14T19:49:42.764Z,13.15
2022-11-14T19:52:09.247Z,14.25
2022-11-14T19:54:35.922Z,14.27
2022-11-14T19:57:02.394Z,13.75
2022-11-14T19:59:28.802Z,13.43
2022-11-14T20:02:02.963Z,15.95
2022-11-14T20:04:30.232Z,16.08
2022-11-14T20:06:58.697Z,15.02
2022-11-14T20:09:25.108Z,18.23
2022-11-14T20:11:51.585Z,15.82
2022-11-14T20:14:18.102Z,17.95
2022-11-14T20:16:45.785Z,11.75
2022-11-14T20:19:13.509Z,18.30
2022-11-14T20:21:39.886Z,14.07
2022-11-14T20:24:06.285Z,15.00
2022-11-14T20:26:32.765Z,15.35
2022-11-14T20:28:59.492Z,14.77
2022-11-14T20:31:28.242Z,17.80
2022-11-14T20:33:54.839Z,14.07
2022-11-14T20:36:23.946Z,14.32
2022-11-14T20:38:50.927Z,13.40
2022-11-14T20:41:17.528Z,15.23
2022-11-14T20:43:44.009Z,13.73
2022-11-14T20:46:21.986Z,15.35
2022-11-14T20:48:49.015Z,13.43
2022-11-14T20:51:17.628Z,14.23
2022-11-14T20:53:44.386Z,15.75
2022-11-14T20:56:12.631Z,13.93
2022-11-14T20:58:46.867Z,13.15
2022-11-14T21:03:40.240Z,15.23
2022-11-14T21:06:08.076Z,15.70
2022-11-14T21:08:35.814Z,13.48
2022-11-14T21:11:04.434Z,18.35
2022-11-14T21:13:49.642Z,14.88
2022-11-14T21:16:21.540Z,15.40
2022-11-14T21:18:48.349Z,16.25
2022-11-14T21:21:19.429Z,15.05
2022-11-14T21:23:47.233Z,16.85
2022-11-14T21:26:22.710Z,14.30
2022-11-14T21:28:51.868Z,16.80
2022-11-14T21:31:33.669Z,18.00
2022-11-14T21:34:01.855Z,14.98
2022-11-14T21:36:45.857Z,13.93
2022-11-14T21:39:15.058Z,14.35
2022-11-14T21:41:42.268Z,16.63
2022-11-14T21:44:13.781Z,13.05
2022-11-14T21:46:40.572Z,15.50
2022-11-14T21:49:06.927Z,14.20
2022-11-14T21:51:33.305Z,42.10
2022-11-14T21:53:59.799Z,29.20
2022-11-14T21:56:30.888Z,19.35
2022-11-14T21:59:15.346Z,15.20
2022-11-14T22:02:03.146Z,13.30
2022-11-14T22:04:32.946Z,15.82
2022-11-14T22:07:05.349Z,12.55
2022-11-14T22:09:32.323Z,14.00
2022-11-14T22:11:59.254Z,13.73
2022-11-14T22:14:26.057Z,14.15
2022-11-14T22:16:52.572Z,14.50
2022-11-14T22:19:19.026Z,14.27
2022-11-14T22:21:45.674Z,13.00
2022-11-14T22:24:11.997Z,14.00
2022-11-14T22:26:39.983Z,13.90
2022-11-14T22:29:07.248Z,12.05
2022-11-14T22:31:33.640Z,14.80
2022-11-14T22:34:00.124Z,12.48
2022-11-14T22:36:27.010Z,12.55
2022-11-14T22:38:54.613Z,12.63
2022-11-14T22:41:30.512Z,16.13
2022-11-14T22:43:58.696Z,11.38
2022-11-14T22:46:28.028Z,13.32
2022-11-14T22:48:54.950Z,16.20
2022-11-14T22:51:23.052Z,13.25
2022-11-14T22:53:53.987Z,14.48
2022-11-14T22:56:22.653Z,17.60
2022-11-14T22:58:49.104Z,12.88
2022-11-14T23:01:27.330Z,12.23
2022-11-14T23:03:59.030Z,13.98
2022-11-14T23:06:25.873Z,11.15
2022-11-14T23:08:52.737Z,12.60
2022-11-14T23:11:24.766Z,15.88
2022-11-14T23:13:53.243Z,17.08
2022-11-14T23:16:24.387Z,19.27
2022-11-14T23:18:51.354Z,11.43
2022-11-14T23:21:20.348Z,16.20
2022-11-14T23:23:46.913Z,12.45
2022-11-14T23:26:15.784Z,13.30
2022-11-14T23:28:42.433Z,10.63
2022-11-14T23:31:10.330Z,14.93
2022-11-14T23:33:36.665Z,10.80
2022-11-14T23:36:03.380Z,11.95
2022-11-14T23:38:30.889Z,9.85
2022-11-14T23:40:59.289Z,10.85
2022-11-14T23:43:25.792Z,11.13
2022-11-14T23:45:52.217Z,11.63
2022-11-14T23:48:19.690Z,11.63
2022-11-14T23:50:49.757Z,12.98
2022-11-14T23:53:16.121Z,10.20
2022-11-14T23:55:42.581Z,10.02
2022-11-14T23:58:08.900Z,13.80
